createdAt,value
2022-12-12T00:00:33.548Z,4.49
2022-12-12T00:05:32.710Z,4.44
2022-12-12T00:10:30.530Z,4.39
2022-12-12T00:15:28.518Z,4.53
2022-12-12T00:20:26.369Z,4.44
2022-12-12T00:25:25.564Z,4.27
2022-12-12T00:30:23.805Z,4.21
2022-12-12T00:35:21.611Z,4.18
2022-12-12T00:40:19.424Z,4.17
2022-12-12T00:45:18.615Z,4.11
2022-12-12T00:50:16.438Z,4.18
2022-12-12T00:55:14.834Z,4.05
2022-12-12T01:00:14.545Z,3.99
2022-12-12T01:05:14.436Z,3.91
2022-12-12T01:10:12.769Z,3.85
2022-12-12T01:15:11.511Z,4.01
2022-12-12T01:20:16.878Z,3.94
2022-12-12T01:25:17.415Z,3.98
2022-12-12T01:30:16.634Z,4.00
2022-12-12T01:35:15.665Z,4.10
2022-12-12T01:40:15.521Z,3.86
2022-12-12T01:45:28.158Z,3.93
2022-12-12T01:50:27.367Z,3.88
2022-12-12T01:55:26.254Z,3.81
2022-12-12T02:00:24.153Z,3.72
2022-12-12T02:05:25.140Z,3.64
2022-12-12T02:10:24.433Z,3.59
2022-12-12T02:15:22.271Z,3.56
2022-12-12T02:20:38.013Z,3.60
2022-12-12T02:25:48.606Z,3.83
2022-12-12T02:30:49.819Z,3.74
2022-12-12T02:35:55.119Z,3.89
2022-12-12T02:40:57.008Z,4.13
2022-12-12T02:45:57.559Z,4.07
2022-12-12T02:50:58.537Z,4.31
2022-12-12T02:56:02.797Z,4.31
2022-12-12T03:01:11.416Z,4.43
2022-12-12T03:06:40.980Z,4.30
2022-12-12T03:11:44.740Z,4.16
2022-12-12T03:16:45.985Z,3.92
2022-12-12T03:21:49.816Z,4.10
2022-12-12T03:26:51.711Z,4.05
2022-12-12T03:31:54.064Z,3.88
2022-12-12T03:36:55.572Z,4.01
2022-12-12T03:41:56.089Z,3.89
2022-12-12T03:46:56.195Z,3.99
2022-12-12T03:51:58.917Z,3.89
2022-12-12T03:56:58.744Z,3.84
2022-12-12T04:01:58.657Z,3.91
2022-12-12T04:07:00.587Z,4.07
2022-12-12T04:12:20.157Z,4.01
2022-12-12T04:17:23.306Z,3.90
2022-12-12T04:22:41.779Z,4.05
2022-12-12T04:27:42.672Z,4.34
2022-12-12T04:32:43.965Z,4.49
2022-12-12T04:37:45.048Z,4.51
2022-12-12T04:42:45.461Z,4.68
2022-12-12T04:47:45.802Z,4.63
2022-12-12T04:52:46.429Z,4.78
2022-12-12T04:57:46.421Z,4.78
2022-12-12T05:02:49.408Z,4.71
2022-12-12T05:07:51.805Z,4.30
2022-12-12T05:12:50.821Z,4.33
2022-12-12T05:17:50.169Z,4.16
2022-12-12T05:22:49.326Z,4.24
2022-12-12T05:27:47.148Z,4.22
2022-12-12T05:32:45.106Z,4.27
2022-12-12T05:37:48.215Z,4.30
2022-12-12T05:42:50.746Z,4.42
2022-12-12T05:47:48.692Z,4.45
2022-12-12T05:52:46.502Z,4.14
2022-12-12T05:57:54.405Z,4.27
2022-12-12T06:02:52.235Z,4.32
2022-12-12T06:07:51.357Z,4.34
2022-12-12T06:12:49.161Z,4.20
2022-12-12T06:17:48.431Z,4.86
2022-12-12T06:22:52.064Z,5.36
2022-12-12T06:27:51.503Z,5.41
2022-12-12T06:32:50.672Z,5.41
2022-12-12T06:37:48.990Z,5.49
2022-12-12T06:42:48.809Z,5.53
2022-12-12T06:47:46.834Z,6.17
2022-12-12T06:52:45.993Z,6.50
2022-12-12T06:57:43.779Z,6.43
2022-12-12T07:02:41.617Z,6.12
2022-12-12T07:07:39.427Z,7.08
2022-12-12T07:12:38.587Z,7.62
2022-12-12T07:17:36.356Z,8.09
2022-12-12T07:22:34.147Z,8.59
2022-12-12T07:27:31.983Z,8.82
2022-12-12T07:32:31.231Z,8.09
2022-12-12T07:37:29.025Z,7.75
2022-12-12T07:42:26.817Z,7.49
2022-12-12T07:47:24.771Z,8.19
2022-12-12T07:52:23.938Z,8.33
2022-12-12T07:57:21.830Z,7.85
2022-12-12T08:02:19.677Z,7.32
2022-12-12T08:07:17.554Z,7.07
2022-12-12T08:12:16.818Z,7.29
2022-12-12T08:17:14.653Z,7.04
2022-12-12T08:22:12.481Z,7.53
2022-12-12T08:27:15.350Z,7.58
2022-12-12T08:32:15.115Z,7.36
2022-12-12T08:37:12.915Z,7.43
2022-12-12T08:42:12.419Z,7.06
2022-12-12T08:47:10.724Z,7.19
2022-12-12T08:52:10.516Z,6.91
2022-12-12T08:57:08.380Z,8.81
2022-12-12T09:02:07.437Z,9.88
2022-12-12T09:07:08.701Z,10.48
2022-12-12T09:12:08.550Z,10.47
2022-12-12T09:17:06.341Z,11.04
2022-12-12T09:22:04.419Z,9.34
2022-12-12T09:27:02.209Z,10.32
2022-12-12T09:32:06.389Z,10.09
2022-12-12T09:37:04.198Z,10.09
2022-12-12T09:42:10.811Z,10.05
2022-12-12T09:47:14.769Z,10.64
2022-12-12T09:52:14.806Z,10.47
2022-12-12T09:57:20.989Z,11.21
2022-12-12T10:02:39.761Z,10.99
2022-12-12T10:07:42.742Z,11.71
2022-12-12T10:12:40.614Z,11.97
2022-12-12T10:17:41.475Z,11.82
2022-12-12T10:22:44.762Z,11.95
2022-12-12T10:27:42.561Z,11.73
2022-12-12T10:32:45.808Z,11.86
2022-12-12T10:37:50.413Z,12.32
2022-12-12T10:42:53.374Z,12.70
2022-12-12T10:47:51.580Z,12.45
2022-12-12T10:52:50.790Z,13.43
2022-12-12T10:57:48.576Z,13.47
2022-12-12T11:02:46.433Z,13.72
2022-12-12T11:07:45.853Z,13.68
2022-12-12T11:12:46.831Z,13.24
2022-12-12T11:17:45.723Z,13.01
2022-12-12T11:22:43.584Z,13.47
2022-12-12T11:27:42.562Z,12.70
2022-12-12T11:32:42.924Z,12.14
2022-12-12T11:37:48.273Z,12.53
2022-12-12T11:42:46.064Z,12.82
2022-12-12T11:47:45.882Z,11.47
2022-12-12T11:52:43.692Z,12.58
2022-12-12T11:57:56.609Z,11.68
2022-12-12T12:03:08.806Z,12.32
2022-12-12T12:08:12.318Z,12.69
2022-12-12T12:13:19.212Z,12.17
2022-12-12T12:18:26.682Z,10.62
2022-12-12T12:23:35.181Z,10.33
2022-12-12T12:29:03.837Z,10.73
2022-12-12T12:34:08.830Z,12.06
2022-12-12T12:39:12.228Z,12.05
2022-12-12T12:44:19.162Z,12.39
2022-12-12T12:49:20.897Z,12.71
2022-12-12T12:54:21.954Z,12.57
2022-12-12T12:59:22.412Z,12.20
2022-12-12T13:04:25.483Z,11.81
2022-12-12T13:09:28.663Z,11.83
2022-12-12T13:14:36.197Z,10.45
2022-12-12T13:19:38.880Z,9.86
2022-12-12T13:24:43.552Z,9.51
2022-12-12T13:29:45.267Z,9.48
2022-12-12T13:34:46.685Z,8.74
2022-12-12T13:39:44.951Z,8.91
2022-12-12T13:44:44.460Z,9.02
2022-12-12T13:49:47.120Z,9.07
2022-12-12T13:54:46.976Z,8.87
2022-12-12T14:00:03.609Z,8.83
2022-12-12T14:05:14.293Z,8.64
2022-12-12T14:10:20.122Z,8.42
2022-12-12T14:15:21.907Z,8.11
2022-12-12T14:20:27.432Z,8.34
2022-12-12T14:25:30.618Z,8.19
2022-12-12T14:30:34.871Z,7.96
2022-12-12T14:35:39.637Z,7.89
2022-12-12T14:40:40.148Z,8.01
2022-12-12T14:45:38.877Z,7.82
2022-12-12T14:50:38.601Z,7.82
2022-12-12T14:55:36.435Z,7.90
2022-12-12T15:00:34.399Z,7.81
2022-12-12T15:05:32.248Z,7.88
2022-12-12T15:10:33.245Z,7.65
2022-12-12T15:15:33.191Z,7.64
2022-12-12T15:20:32.178Z,7.44
2022-12-12T15:25:32.747Z,7.56
2022-12-12T15:30:33.000Z,7.61
2022-12-12T15:35:30.853Z,7.42
2022-12-12T15:40:29.948Z,7.45
2022-12-12T15:45:33.863Z,7.29
2022-12-12T15:50:51.221Z,7.26
2022-12-12T15:55:53.051Z,7.11
2022-12-12T16:00:53.002Z,7.17
2022-12-12T16:06:03.257Z,7.09
2022-12-12T16:11:01.952Z,7.03
2022-12-12T16:16:01.221Z,6.99
2022-12-12T16:20:59.259Z,6.91
2022-12-12T16:25:57.371Z,6.93
2022-12-12T16:30:56.823Z,6.80
2022-12-12T16:35:56.093Z,6.71
2022-12-12T16:40:55.209Z,6.74
2022-12-12T16:45:53.731Z,6.79
2022-12-12T16:50:52.192Z,6.80
2022-12-12T16:55:52.403Z,6.58
2022-12-12T17:00:52.751Z,6.10
2022-12-12T17:05:51.088Z,5.94
2022-12-12T17:10:49.782Z,6.05
2022-12-12T17:15:50.157Z,5.64
2022-12-12T17:20:48.539Z,5.66
2022-12-12T17:25:48.524Z,5.30
2022-12-12T17:30:46.694Z,5.43
2022-12-12T17:35:45.892Z,5.24
2022-12-12T17:40:44.381Z,5.02
2022-12-12T17:45:42.244Z,4.91
2022-12-12T17:50:41.924Z,5.18
2022-12-12T17:55:53.079Z,4.93
2022-12-12T18:00:53.921Z,5.17
2022-12-12T18:05:52.322Z,4.88
2022-12-12T18:10:51.497Z,5.07
2022-12-12T18:15:54.299Z,5.11
2022-12-12T18:20:52.376Z,4.88
2022-12-12T18:25:51.589Z,4.98
2022-12-12T18:30:49.992Z,4.85
2022-12-12T18:35:49.941Z,4.96
2022-12-12T18:40:47.761Z,4.88
2022-12-12T18:45:50.683Z,4.59
2022-12-12T18:50:48.584Z,4.75
2022-12-12T18:55:46.421Z,4.44
2022-12-12T19:00:44.216Z,4.30
2022-12-12T19:05:44.169Z,4.34
2022-12-12T19:10:42.145Z,4.11
2022-12-12T19:15:39.984Z,4.26
2022-12-12T19:20:37.966Z,4.31
2022-12-12T19:25:42.604Z,4.02
2022-12-12T19:30:41.351Z,4.09
2022-12-12T19:35:39.266Z,4.00
2022-12-12T19:40:38.422Z,3.76
2022-12-12T19:45:36.226Z,3.79
2022-12-12T19:50:36.281Z,3.67
2022-12-12T19:55:34.130Z,3.81
2022-12-12T20:00:33.312Z,3.69
2022-12-12T20:05:31.279Z,3.31
2022-12-12T20:10:29.078Z,3.28
2022-12-12T20:15:26.962Z,3.29
2022-12-12T20:20:26.124Z,3.25
2022-12-12T20:25:23.918Z,3.00
2022-12-12T20:30:21.834Z,3.19
2022-12-12T20:35:21.221Z,2.88
2022-12-12T20:40:20.546Z,2.98
2022-12-12T20:45:18.468Z,2.61
2022-12-12T20:50:16.712Z,2.66
2022-12-12T20:55:14.673Z,2.71
2022-12-12T21:00:14.762Z,2.69
2022-12-12T21:05:13.243Z,2.44
2022-12-12T21:10:11.241Z,2.58
2022-12-12T21:15:09.878Z,2.50
2022-12-12T21:20:09.958Z,2.59
2022-12-12T21:25:08.139Z,2.67
2022-12-12T21:30:06.467Z,2.77
2022-12-12T21:35:04.331Z,2.48
2022-12-12T21:40:03.593Z,2.47
2022-12-12T21:45:01.396Z,2.58
2022-12-12T21:49:59.176Z,2.60
2022-12-12T21:54:56.958Z,2.33
2022-12-12T21:59:56.283Z,2.46
2022-12-12T22:04:54.078Z,2.34
2022-12-12T22:10:09.532Z,2.38
2022-12-12T22:15:11.016Z,2.13
2022-12-12T22:20:09.559Z,2.14
2022-12-12T22:25:08.513Z,2.33
2022-12-12T22:30:06.944Z,1.92
2022-12-12T22:35:06.598Z,1.56
2022-12-12T22:40:04.679Z,1.82
2022-12-12T22:45:02.535Z,1.71
2022-12-12T22:50:00.349Z,1.63
2022-12-12T22:54:59.957Z,1.54
2022-12-12T22:59:57.785Z,1.44
2022-12-12T23:04:55.707Z,1.37
2022-12-12T23:09:53.689Z,1.29
2022-12-12T23:14:52.871Z,1.37
2022-12-12T23:19:50.684Z,1.30
2022-12-12T23:24:48.472Z,1.70
2022-12-12T23:29:46.278Z,1.60
2022-12-12T23:34:45.489Z,1.59
2022-12-12T23:39:43.372Z,1.71
2022-12-12T23:44:41.178Z,1.97
2022-12-12T23:49:38.978Z,1.61
2022-12-12T23:54:38.394Z,1.95
2022-12-12T23:59:36.180Z,1.96
